Time;durP1;ratioP1;P1;durP2;ratioP2;P2;SDS_P1;SDS_P2;PMS_P1;PMS_P2;Temp;Humidity;BMP_temperature;BMP_pressure;BME280_temperature;BME280_humidity;BME280_pressure;Samples;Min_cycle;Max_cycle;Signal;HPM_P1;HPM_P2
2022/07/07 00:00:24;;;;;;;;;11.60;11.40;;;;;23.89;45.47;99076.63;6259740;27;97096;-58
2022/07/07 00:03:27;;;;;;;;;10.00;10.00;;;;;23.80;45.48;99072.94;6259731;27;97359;-62
2022/07/07 00:06:31;;;;;;;;;10.00;10.00;;;;;23.71;45.66;99076.38;6260180;27;96590;-62
2022/07/07 00:09:37;;;;;;;;;10.00;10.00;;;;;23.68;45.51;99076.19;6260452;27;97035;-61
2022/07/07 00:12:42;;;;;;;;;13.50;12.75;;;;;23.65;45.55;99071.28;6260517;27;96448;-61
2022/07/07 00:15:46;;;;;;;;;10.00;10.00;;;;;23.66;45.40;99061.88;6260189;27;96550;-54
2022/07/07 00:18:50;;;;;;;;;12.25;11.75;;;;;23.67;45.44;99060.78;6259330;27;97415;-64
2022/07/07 00:21:54;;;;;;;;;15.00;14.00;;;;;23.65;45.64;99065.78;6240605;27;97074;-61
2022/07/07 00:24:57;;;;;;;;;11.00;11.00;;;;;23.59;45.98;99058.72;6262006;27;97858;-63
2022/07/07 00:28:02;;;;;;;;;11.00;11.00;;;;;23.54;45.90;99054.13;6244318;27;99118;-61
2022/07/07 00:31:05;;;;;;;;;12.00;12.00;;;;;23.48;46.04;99054.50;6243430;27;99417;-53
2022/07/07 00:34:09;;;;;;;;;10.60;10.60;;;;;23.39;46.04;99045.28;6264348;27;96483;-64
2022/07/07 00:37:12;;;;;;;;;12.60;12.00;;;;;23.32;46.29;99052.00;6263801;27;97082;-61
2022/07/07 00:40:15;;;;;;;;;11.00;10.40;;;;;23.23;46.63;99047.47;6263571;27;96902;-60
2022/07/07 00:43:21;;;;;;;;;12.00;12.00;;;;;23.23;46.77;99056.53;6264461;27;98086;-63
2022/07/07 00:46:24;;;;;;;;;16.00;15.00;;;;;23.22;46.76;99045.84;6245475;27;96770;-61
2022/07/07 00:49:28;;;;;;;;;13.60;13.60;;;;;23.21;46.72;99045.00;6264261;27;97459;-55
2022/07/07 00:52:31;;;;;;;;;14.00;12.75;;;;;23.18;46.83;99045.63;6245285;27;97515;-58
2022/07/07 00:55:35;;;;;;;;;14.00;14.00;;;;;23.17;46.92;99043.16;6229311;27;96881;-58
2022/07/07 00:58:40;;;;;;;;;15.00;15.00;;;;;23.17;46.64;99046.75;6263132;27;97475;-61
2022/07/07 01:01:43;;;;;;;;;13.00;13.00;;;;;23.09;46.89;99041.94;6242797;27;98597;-61
2022/07/07 01:04:47;;;;;;;;;13.00;12.75;;;;;23.11;47.23;99044.38;6263962;27;97528;-65
2022/07/07 01:07:51;;;;;;;;;13.40;13.00;;;;;23.05;47.38;99035.41;6263835;27;96834;-61
2022/07/07 01:10:54;;;;;;;;;12.00;12.00;;;;;22.98;47.18;99034.94;6264662;27;96977;-61
2022/07/07 01:13:59;;;;;;;;;12.00;11.75;;;;;22.89;47.15;99039.50;6263600;27;96677;-60
2022/07/07 01:17:02;;;;;;;;;13.00;12.50;;;;;22.83;47.55;99046.19;6262941;27;96534;-58
2022/07/07 01:20:08;;;;;;;;;14.40;14.40;;;;;22.63;47.80;99018.97;6262818;27;97479;-59
2022/07/07 01:23:14;;;;;;;;;15.00;15.00;;;;;22.71;47.56;99040.34;6264013;27;96822;-59
2022/07/07 01:26:17;;;;;;;;;13.00;13.00;;;;;22.64;47.87;99040.66;6262879;27;96660;-61
2022/07/07 01:29:20;;;;;;;;;12.00;12.00;;;;;22.62;47.96;99042.91;6264032;27;96853;-60
2022/07/07 01:32:25;;;;;;;;;12.60;12.60;;;;;22.60;48.03;99050.63;6261589;27;98122;-62
2022/07/07 01:35:29;;;;;;;;;14.00;14.00;;;;;22.63;47.79;99049.19;6243504;27;98379;-60
2022/07/07 01:38:35;;;;;;;;;12.40;12.00;;;;;22.63;48.00;99046.44;6262059;27;97399;-61
2022/07/07 01:41:38;;;;;;;;;15.00;15.00;;;;;22.63;48.15;99046.44;6260827;27;97359;-58
2022/07/07 01:44:42;;;;;;;;;17.00;16.50;;;;;22.59;48.21;99037.97;6246158;27;97390;-62
2022/07/07 01:47:46;;;;;;;;;15.25;15.25;;;;;22.52;48.61;99040.28;6244737;27;96911;-59
2022/07/07 01:50:49;;;;;;;;;14.50;13.75;;;;;22.46;48.89;99042.28;6244795;27;96825;-59
2022/07/07 01:53:54;;;;;;;;;19.00;18.00;;;;;22.42;48.91;99043.19;6243010;27;97210;-61
2022/07/07 01:56:58;;;;;;;;;17.00;15.25;;;;;22.34;49.23;99044.63;6261882;27;96623;-62
2022/07/07 02:00:02;;;;;;;;;16.20;15.60;;;;;22.33;49.25;99040.25;6261795;27;96946;-61
2022/07/07 02:03:06;;;;;;;;;14.00;14.00;;;;;22.31;49.29;99034.25;6261022;27;97147;-66
2022/07/07 02:06:10;;;;;;;;;16.25;15.00;;;;;22.29;48.82;99041.13;6261829;27;97416;-61
2022/07/07 02:09:15;;;;;;;;;14.00;14.00;;;;;22.25;48.81;99035.41;6228397;27;99466;-55
2022/07/07 02:12:19;;;;;;;;;13.75;13.00;;;;;22.23;48.30;99034.91;6245303;27;97474;-60
2022/07/07 02:15:22;;;;;;;;;16.00;16.00;;;;;22.26;48.43;99030.75;6244263;27;96914;-61
2022/07/07 02:18:26;;;;;;;;;16.00;15.75;;;;;22.30;47.95;99038.09;6262049;27;97516;-60
2022/07/07 02:21:29;;;;;;;;;17.00;16.00;;;;;22.32;47.79;99037.81;6261662;27;96728;-58
2022/07/07 02:24:34;;;;;;;;;16.00;15.40;;;;;22.27;48.22;99037.88;6227094;27;96844;-58
2022/07/07 02:27:37;;;;;;;;;14.00;13.25;;;;;22.24;47.85;99036.53;6262932;27;98174;-62
2022/07/07 02:30:41;;;;;;;;;12.00;12.00;;;;;22.23;47.77;99029.41;6244127;27;97494;-61
2022/07/07 02:33:45;;;;;;;;;11.20;10.40;;;;;22.23;47.80;99026.69;6262386;27;96876;-53
2022/07/07 02:36:48;;;;;;;;;17.50;16.50;;;;;22.20;47.54;99020.94;6263279;27;97397;-59
2022/07/07 02:39:53;;;;;;;;;17.00;16.00;;;;;22.17;47.25;99019.59;6263268;27;96658;-62
2022/07/07 02:42:56;;;;;;;;;15.00;15.00;;;;;22.21;47.32;99014.34;6261857;27;96777;-55
2022/07/07 02:46:03;;;;;;;;;13.00;12.00;;;;;22.23;47.11;99023.09;6260610;27;96818;-53
2022/07/07 02:49:07;;;;;;;;;13.00;13.00;;;;;22.21;47.56;99014.34;6260940;27;98156;-64
2022/07/07 02:52:10;;;;;;;;;17.00;17.00;;;;;22.17;47.76;99025.09;6262096;27;97400;-58
2022/07/07 02:55:15;;;;;;;;;14.80;14.40;;;;;22.16;48.19;99023.47;6262664;27;97168;-62
2022/07/07 02:58:22;;;;;;;;;16.00;15.50;;;;;22.18;47.93;99020.44;6262685;27;96800;-60
2022/07/07 03:01:26;;;;;;;;;14.00;13.00;;;;;22.19;48.28;99022.03;6235048;27;97865;-59
2022/07/07 03:04:29;;;;;;;;;15.00;15.00;;;;;22.24;48.13;99009.06;6259162;27;96810;-55
2022/07/07 03:07:33;;;;;;;;;13.00;13.00;;;;;22.29;48.04;99014.50;6261635;27;96594;-54
2022/07/07 03:10:39;;;;;;;;;15.00;14.00;;;;;22.34;48.04;99017.16;6255544;27;97485;-63
2022/07/07 03:13:42;;;;;;;;;15.60;15.00;;;;;22.37;47.77;99018.53;6261080;27;97502;-64
2022/07/07 03:16:46;;;;;;;;;12.00;12.00;;;;;22.37;47.80;99007.53;6258798;27;97194;-60
2022/07/07 03:19:49;;;;;;;;;14.60;14.60;;;;;22.40;47.42;98998.69;6257579;27;97422;-54
2022/07/07 03:22:52;;;;;;;;;17.00;17.00;;;;;22.41;47.36;98997.59;6259180;27;97570;-64
2022/07/07 03:25:57;;;;;;;;;14.00;13.00;;;;;22.28;47.25;98985.41;6259890;27;97289;-59
2022/07/07 03:29:01;;;;;;;;;14.40;12.80;;;;;22.43;47.01;99014.59;6260547;27;97436;-61
2022/07/07 03:32:05;;;;;;;;;13.40;13.40;;;;;22.46;46.96;99025.81;6258639;27;97475;-60
2022/07/07 03:35:09;;;;;;;;;13.20;12.60;;;;;22.51;46.84;99029.59;6260001;27;96776;-64
2022/07/07 03:38:12;;;;;;;;;13.20;12.60;;;;;22.55;47.04;99033.38;6260902;27;96933;-56
2022/07/07 03:41:17;;;;;;;;;11.20;11.20;;;;;22.59;46.90;99026.16;6258578;27;97417;-60
2022/07/07 03:44:20;;;;;;;;;10.50;10.50;;;;;22.61;46.52;99021.19;6259394;27;97427;-58
2022/07/07 03:47:24;;;;;;;;;15.40;15.40;;;;;22.69;46.39;99028.78;6257567;27;97161;-53
2022/07/07 03:50:27;;;;;;;;;14.40;14.40;;;;;22.74;46.44;99029.53;6258564;27;97030;-65
2022/07/07 03:53:30;;;;;;;;;10.00;10.00;;;;;22.79;46.38;99015.72;6260563;27;97470;-56
2022/07/07 03:56:35;;;;;;;;;11.00;11.00;;;;;22.87;45.81;99011.50;6239786;27;96855;-59
2022/07/07 03:59:38;;;;;;;;;9.00;9.00;;;;;22.83;45.98;98993.94;6262215;27;96689;-59
2022/07/07 04:02:42;;;;;;;;;14.00;13.00;;;;;23.02;45.61;99021.44;6264183;27;97510;-62
2022/07/07 04:05:45;;;;;;;;;12.33;12.33;;;;;23.07;45.80;99011.16;6265175;27;97271;-61
2022/07/07 04:08:49;;;;;;;;;12.00;11.00;;;;;23.15;45.44;99015.16;6264416;27;96386;-55
2022/07/07 04:11:54;;;;;;;;;12.00;12.00;;;;;23.21;45.79;99017.50;6263700;27;97428;-57
2022/07/07 04:14:57;;;;;;;;;12.60;12.00;;;;;23.08;45.69;98981.72;6265139;27;97486;-58
2022/07/07 04:18:01;;;;;;;;;14.00;13.00;;;;;23.33;45.47;99015.13;6264381;27;97401;-60
2022/07/07 04:21:05;;;;;;;;;10.20;10.20;;;;;23.40;46.06;99011.16;6265596;27;96970;-58
2022/07/07 04:24:08;;;;;;;;;10.60;10.60;;;;;23.46;45.39;99018.22;6264673;27;97986;-57
2022/07/07 04:27:13;;;;;;;;;12.60;12.60;;;;;23.53;45.37;99013.13;6264479;27;96609;-57
2022/07/07 04:30:16;;;;;;;;;14.00;12.00;;;;;23.58;45.44;99018.56;6264865;27;97457;-58
2022/07/07 04:33:20;;;;;;;;;10.20;10.20;;;;;23.39;45.31;98979.25;6265109;27;98470;-62
2022/07/07 04:36:23;;;;;;;;;27.80;26.80;;;;;23.64;45.14;99011.84;6245157;27;96979;-58
2022/07/07 04:39:26;;;;;;;;;12.00;11.20;;;;;23.67;45.39;99011.22;6264834;27;96920;-62
2022/07/07 04:42:31;;;;;;;;;14.00;13.00;;;;;23.68;44.92;99004.59;6245709;27;97046;-61
2022/07/07 04:45:35;;;;;;;;;14.60;14.60;;;;;23.71;44.64;99015.00;6245073;27;99440;-58
2022/07/07 04:48:38;;;;;;;;;15.00;14.50;;;;;23.71;44.50;99017.75;6244349;27;96717;-61
2022/07/07 04:51:41;;;;;;;;;9.00;8.00;;;;;23.69;44.49;99007.06;6242955;27;99571;-61
2022/07/07 04:54:45;;;;;;;;;10.80;10.00;;;;;23.74;44.10;99009.72;6244393;27;96708;-58
2022/07/07 04:57:49;;;;;;;;;10.60;10.20;;;;;23.79;44.54;99002.47;6252198;27;97469;-61
2022/07/07 05:00:55;;;;;;;;;11.25;11.00;;;;;23.88;44.43;99009.72;6263226;27;97084;-63
2022/07/07 05:04:03;;;;;;;;;12.00;12.00;;;;;23.97;44.12;99009.81;6243541;27;100899;-54
2022/07/07 05:07:06;;;;;;;;;12.60;11.60;;;;;23.90;44.47;98984.59;6263778;27;96473;-60
2022/07/07 05:10:10;;;;;;;;;12.00;11.00;;;;;24.15;43.97;99006.13;6256382;27;97438;-56
2022/07/07 05:13:15;;;;;;;;;10.00;9.80;;;;;24.26;43.84;99012.25;6263786;27;97034;-61
2022/07/07 05:16:18;;;;;;;;;14.60;14.60;;;;;24.37;43.59;99016.44;6262560;27;96680;-53
2022/07/07 05:19:21;;;;;;;;;10.00;10.00;;;;;24.48;43.33;99017.84;6263064;27;96859;-60
2022/07/07 05:22:25;;;;;;;;;11.60;10.60;;;;;24.55;43.26;99016.28;6260237;27;97703;-61
2022/07/07 05:25:28;;;;;;;;;13.00;12.00;;;;;24.62;43.14;99012.31;6261352;27;97059;-58
2022/07/07 05:28:36;;;;;;;;;10.00;10.00;;;;;24.66;42.81;99014.13;6261400;27;97043;-62
2022/07/07 05:31:39;;;;;;;;;13.00;13.00;;;;;24.60;42.58;98998.81;6262705;27;96705;-56
2022/07/07 05:34:42;;;;;;;;;10.60;10.00;;;;;24.72;42.67;99006.56;6264261;27;96822;-64
2022/07/07 05:37:46;;;;;;;;;12.00;11.00;;;;;24.76;42.54;99007.56;6264204;27;97352;-57
2022/07/07 05:40:49;;;;;;;;;9.00;9.00;;;;;24.83;42.67;99008.75;6263790;27;97532;-55
2022/07/07 05:43:55;;;;;;;;;10.40;10.40;;;;;24.90;42.74;98995.38;6263164;27;97562;-58
2022/07/07 05:47:00;;;;;;;;;10.80;10.80;;;;;24.98;42.52;98996.56;6263697;27;97005;-52
2022/07/07 05:50:05;;;;;;;;;12.00;12.00;;;;;25.06;42.30;99006.03;6245239;27;97872;-60
2022/07/07 05:53:08;;;;;;;;;11.40;10.40;;;;;25.13;41.98;98998.13;6263491;27;96807;-52
2022/07/07 05:56:11;;;;;;;;;14.00;13.00;;;;;25.23;42.17;98998.69;6263508;27;96942;-61
2022/07/07 05:59:16;;;;;;;;;11.00;10.40;;;;;25.32;41.94;99004.25;6262776;27;97322;-56
2022/07/07 06:02:19;;;;;;;;;10.40;10.40;;;;;25.41;41.99;99005.94;6263381;27;96918;-56
2022/07/07 06:05:23;;;;;;;;;8.00;8.00;;;;;25.52;41.66;98994.63;6263598;27;96466;-56
2022/07/07 06:08:28;;;;;;;;;12.00;11.00;;;;;25.58;41.06;98994.22;6263826;27;97350;-58
2022/07/07 06:11:31;;;;;;;;;10.80;10.60;;;;;25.69;41.12;98994.75;6243640;27;97466;-58
2022/07/07 06:14:36;;;;;;;;;13.00;12.75;;;;;25.61;40.79;98981.75;6264256;27;97420;-62
2022/07/07 06:17:39;;;;;;;;;12.00;12.00;;;;;25.83;41.24;98998.22;6263158;27;96464;-66
2022/07/07 06:21:03;;;;;;;;;12.40;12.00;;;;;25.96;40.48;98997.28;6245273;27;96917;-57
2022/07/07 06:24:09;;;;;;;;;11.25;11.00;;;;;25.96;40.61;98977.94;6263275;27;96888;-59
2022/07/07 06:27:13;;;;;;;;;13.00;12.00;;;;;26.16;40.10;98984.81;6263284;27;97466;-57
2022/07/07 06:30:17;;;;;;;;;11.00;11.00;;;;;26.24;39.63;98981.31;6262844;27;96542;-58
2022/07/07 06:33:20;;;;;;;;;12.00;11.20;;;;;26.29;39.33;98978.41;6262931;27;96749;-58
2022/07/07 06:36:24;;;;;;;;;13.00;12.00;;;;;26.38;39.00;98981.19;6244690;27;98498;-61
2022/07/07 06:39:27;;;;;;;;;14.60;14.00;;;;;26.43;38.78;98995.66;6245132;27;97313;-60
2022/07/07 06:42:31;;;;;;;;;13.00;13.00;;;;;26.51;38.74;98989.31;6262365;27;97114;-59
2022/07/07 06:45:41;;;;;;;;;11.00;10.00;;;;;26.58;39.08;98991.59;6245249;27;97357;-63
2022/07/07 06:48:45;;;;;;;;;12.00;11.40;;;;;26.65;38.91;98980.88;6244724;27;97007;-60
2022/07/07 06:51:48;;;;;;;;;10.00;10.00;;;;;26.75;38.69;98986.06;6262636;27;96933;-59
2022/07/07 06:54:52;;;;;;;;;10.50;10.00;;;;;26.87;38.67;98977.16;6263027;27;97141;-55
2022/07/07 06:57:55;;;;;;;;;14.00;13.00;;;;;26.92;38.16;98980.56;6262348;27;97092;-62
2022/07/07 07:00:59;;;;;;;;;11.40;10.40;;;;;27.02;38.82;98971.94;6262681;27;96867;-60
2022/07/07 07:04:03;;;;;;;;;15.00;14.00;;;;;27.13;38.48;98981.50;6262506;27;97221;-61
2022/07/07 07:07:06;;;;;;;;;13.67;12.00;;;;;27.19;38.00;98978.56;6262858;27;96549;-61
2022/07/07 07:10:10;;;;;;;;;12.00;11.00;;;;;27.25;37.83;98989.16;6262000;27;96608;-56
2022/07/07 07:13:13;;;;;;;;;12.60;12.60;;;;;27.32;37.53;98974.81;6262407;27;97473;-59
2022/07/07 07:16:19;;;;;;;;;11.00;10.00;;;;;27.45;37.32;98982.91;6262420;27;96552;-59
2022/07/07 07:19:23;;;;;;;;;11.75;11.50;;;;;27.54;36.84;98980.97;6261463;27;97390;-61
2022/07/07 07:22:27;;;;;;;;;11.75;11.25;;;;;27.69;37.06;98968.53;6237272;28;97731;-58
2022/07/07 07:25:30;;;;;;;;;13.25;12.00;;;;;27.87;36.76;98969.25;6236972;28;97405;-59
2022/07/07 07:28:34;;;;;;;;;11.75;11.00;;;;;27.90;34.72;98947.25;6237097;28;97839;-65
2022/07/07 07:31:38;;;;;;;;;11.00;11.00;;;;;28.12;34.62;98970.28;6254738;27;97103;-62
2022/07/07 07:34:42;;;;;;;;;11.00;11.00;;;;;28.24;35.39;98971.19;6263924;27;96965;-59
2022/07/07 07:37:45;;;;;;;;;11.50;11.00;;;;;28.34;35.16;98956.94;6266431;27;97994;-60
2022/07/07 07:40:50;;;;;;;;;10.80;9.20;;;;;28.59;35.13;98968.19;6247782;27;96877;-57
2022/07/07 07:43:55;;;;;;;;;7.50;7.50;;;;;28.75;34.10;98967.25;6266594;27;96435;-61
2022/07/07 07:46:59;;;;;;;;;8.40;8.00;;;;;28.87;32.84;98969.28;6265489;27;96797;-58
2022/07/07 07:50:03;;;;;;;;;10.40;9.40;;;;;28.98;32.83;98964.13;6262730;27;97904;-60
2022/07/07 07:53:07;;;;;;;;;9.00;9.00;;;;;29.08;32.56;98967.25;6241233;28;96695;-60
2022/07/07 07:56:10;;;;;;;;;8.50;8.00;;;;;29.20;31.77;98958.16;6240905;28;97416;-64
2022/07/07 07:59:14;;;;;;;;;10.60;10.60;;;;;29.35;32.98;98965.88;6241229;28;96944;-52
2022/07/07 08:02:18;;;;;;;;;9.00;9.00;;;;;29.48;31.85;98961.16;6256725;27;96748;-62
2022/07/07 08:05:22;;;;;;;;;8.75;8.75;;;;;29.62;30.67;98965.22;6241109;28;96305;-58
2022/07/07 08:08:26;;;;;;;;;10.00;10.00;;;;;29.72;30.48;98969.50;6241606;28;97378;-62
2022/07/07 08:11:29;;;;;;;;;9.20;9.00;;;;;29.64;30.41;98926.00;6255683;27;97530;-60
2022/07/07 08:14:32;;;;;;;;;9.00;8.20;;;;;30.01;31.47;98960.16;6266418;27;96744;-57
2022/07/07 08:17:37;;;;;;;;;9.75;9.75;;;;;30.23;30.99;98959.69;6265885;27;97004;-56
2022/07/07 08:20:41;;;;;;;;;10.75;9.00;;;;;30.47;30.49;98962.47;6265458;27;97656;-60
2022/07/07 08:23:44;;;;;;;;;8.20;8.20;;;;;30.73;30.74;98952.91;6265888;27;97439;-58
2022/07/07 08:26:48;;;;;;;;;8.80;8.00;;;;;30.94;29.93;98957.09;6265600;27;97404;-60
2022/07/07 08:29:51;;;;;;;;;10.75;10.75;;;;;31.08;28.27;98958.69;6265495;27;96856;-62
2022/07/07 08:32:58;;;;;;;;;10.00;9.60;;;;;31.14;26.91;98952.50;6265248;27;97592;-57
2022/07/07 08:36:02;;;;;;;;;8.20;8.00;;;;;31.21;27.03;98955.50;6266209;27;96556;-60
2022/07/07 08:39:05;;;;;;;;;7.00;7.00;;;;;31.28;27.38;98952.88;6264355;27;97426;-61
2022/07/07 08:42:11;;;;;;;;;9.40;9.00;;;;;31.28;27.36;98949.28;6264182;27;97386;-61
2022/07/07 08:45:14;;;;;;;;;10.40;10.00;;;;;31.31;27.88;98949.41;6246300;27;96663;-62
2022/07/07 08:48:20;;;;;;;;;9.60;9.60;;;;;31.26;27.10;98951.63;6261152;27;97354;-56
2022/07/07 08:51:23;;;;;;;;;7.00;6.00;;;;;31.25;27.09;98948.03;6245345;27;97507;-62
2022/07/07 08:54:27;;;;;;;;;8.50;8.00;;;;;31.35;27.45;98943.91;6240330;28;96512;-60
2022/07/07 08:57:31;;;;;;;;;7.00;7.00;;;;;31.44;25.82;98940.94;6242174;27;97399;-59
2022/07/07 09:00:34;;;;;;;;;7.00;7.00;;;;;31.55;25.12;98933.69;6244778;27;96375;-59
2022/07/07 09:03:39;;;;;;;;;8.00;7.00;;;;;31.72;25.69;98936.94;6265319;27;96509;-58
2022/07/07 09:06:53;;;;;;;;;9.00;8.00;;;;;31.87;25.47;98931.72;6246463;27;98670;-64
2022/07/07 09:09:56;;;;;;;;;9.00;9.00;;;;;31.89;26.17;98934.97;6265543;27;97466;-64
2022/07/07 09:13:00;;;;;;;;;9.00;9.00;;;;;31.94;25.96;98934.69;6264709;27;97123;-62
2022/07/07 09:16:13;;;;;;;;;8.50;8.50;;;;;31.96;25.74;98935.94;6264477;27;96794;-52
2022/07/07 09:19:20;;;;;;;;;8.00;8.00;;;;;31.94;25.27;98940.25;6263901;27;96615;-62
2022/07/07 09:22:42;;;;;;;;;8.00;8.00;;;;;31.86;24.54;98939.28;6265326;27;96885;-65
2022/07/07 09:25:45;;;;;;;;;9.00;9.00;;;;;31.84;25.13;98944.41;6265254;27;97430;-60
2022/07/07 09:28:48;;;;;;;;;7.33;6.33;;;;;31.84;25.38;98930.47;6263781;27;96926;-59
2022/07/07 09:31:54;;;;;;;;;8.00;8.00;;;;;31.80;25.68;98932.38;6245848;27;96695;-56
2022/07/07 09:38:13;;;;;;;;;8.00;8.00;;;;;31.85;26.07;98937.66;6265167;27;97231;-63
2022/07/07 09:38:24;;;;;;;;;9.00;8.40;;;;;31.93;26.34;98930.28;6263769;27;97505;-63
2022/07/07 09:41:28;;;;;;;;;10.00;10.00;;;;;32.03;26.55;98929.72;6263560;27;97241;-61
2022/07/07 09:44:33;;;;;;;;;8.50;8.50;;;;;32.17;25.10;98921.72;6263535;27;96582;-62
2022/07/07 09:47:39;;;;;;;;;8.50;8.00;;;;;32.25;24.91;98931.88;6264331;27;98165;-62
2022/07/07 09:50:45;;;;;;;;;10.00;9.80;;;;;32.24;25.47;98925.47;6245891;27;97485;-59
2022/07/07 09:54:00;;;;;;;;;8.00;8.00;;;;;32.21;24.87;98928.97;6261905;27;96933;-62
2022/07/07 09:57:04;;;;;;;;;7.40;7.40;;;;;32.33;25.67;98930.03;6261356;27;98160;-61
2022/07/07 10:00:09;;;;;;;;;9.40;9.40;;;;;32.48;25.23;98913.25;6243889;27;97151;-58
2022/07/07 10:03:15;;;;;;;;;9.00;9.00;;;;;32.69;24.76;98920.50;6259570;27;96968;-58
2022/07/07 10:06:20;;;;;;;;;8.80;7.80;;;;;32.85;24.35;98910.84;6243727;27;97729;-60
2022/07/07 10:09:25;;;;;;;;;8.40;8.40;;;;;33.00;23.35;98906.34;6261255;27;97101;-57
2022/07/07 10:12:30;;;;;;;;;9.00;8.00;;;;;33.18;23.40;98912.31;6261865;27;97441;-59
2022/07/07 10:15:34;;;;;;;;;8.75;8.75;;;;;33.24;23.08;98916.38;6261369;27;97411;-60
2022/07/07 10:18:37;;;;;;;;;7.00;7.00;;;;;33.36;23.00;98907.84;6259185;27;97016;-61
2022/07/07 10:21:44;;;;;;;;;8.00;7.40;;;;;33.48;24.13;98913.22;6262480;27;96864;-57
2022/07/07 10:24:49;;;;;;;;;10.00;9.80;;;;;33.53;22.93;98912.13;6261258;27;97011;-62
2022/07/07 10:27:53;;;;;;;;;8.00;8.00;;;;;33.44;22.93;98906.78;6262670;27;96632;-59
2022/07/07 10:31:21;;;;;;;;;9.60;9.60;;;;;33.39;22.96;98907.91;6261741;27;97457;-56
2022/07/07 10:34:33;;;;;;;;;7.20;7.00;;;;;33.37;23.84;98912.25;6263593;27;96820;-62
2022/07/07 10:37:43;;;;;;;;;8.00;8.00;;;;;33.53;24.04;98903.75;6263237;27;96400;-62
2022/07/07 10:40:53;;;;;;;;;9.00;9.00;;;;;33.69;23.67;98901.63;6263381;27;97889;-58
2022/07/07 10:44:06;;;;;;;;;8.60;8.60;;;;;33.76;22.54;98902.56;6262914;27;97416;-62
2022/07/07 10:47:34;;;;;;;;;6.75;6.75;;;;;33.80;22.87;98897.03;6263560;27;97419;-59
2022/07/07 10:50:37;;;;;;;;;7.80;7.00;;;;;33.85;23.37;98893.91;6262806;27;97478;-61
2022/07/07 10:53:56;;;;;;;;;9.00;9.00;;;;;33.83;23.51;98874.69;6244984;27;96604;-61
2022/07/07 10:57:17;;;;;;;;;9.00;8.00;;;;;34.03;22.63;98899.78;6244440;27;98805;-61
2022/07/07 11:00:28;;;;;;;;;9.00;9.00;;;;;34.10;22.90;98889.50;6262374;27;96524;-58
2022/07/07 11:03:37;;;;;;;;;8.40;8.00;;;;;34.20;22.68;98882.47;6244410;27;96800;-60
2022/07/07 11:07:11;;;;;;;;;6.00;6.00;;;;;34.23;21.49;98876.13;6262935;27;97463;-58
2022/07/07 11:10:16;;;;;;;;;7.00;7.00;;;;;34.02;22.38;98873.78;6261938;27;96625;-60
2022/07/07 11:13:22;;;;;;;;;8.60;8.00;;;;;34.05;22.57;98875.03;6262553;27;97545;-60
2022/07/07 11:16:28;;;;;;;;;11.00;10.00;;;;;34.13;22.71;98869.16;6262792;27;97397;-64
2022/07/07 11:19:34;;;;;;;;;8.80;8.20;;;;;34.22;22.34;98871.69;6244098;27;97519;-62
2022/07/07 11:22:43;;;;;;;;;8.80;8.80;;;;;34.22;22.25;98858.50;6262440;27;96496;-58
2022/07/07 11:25:51;;;;;;;;;9.00;9.00;;;;;34.32;21.56;98852.25;6262638;27;96545;-61
2022/07/07 11:28:58;;;;;;;;;10.00;10.00;;;;;34.28;21.71;98864.59;6237844;28;96843;-62
2022/07/07 11:32:07;;;;;;;;;11.40;11.00;;;;;34.23;22.95;98853.72;6237247;27;96538;-60
2022/07/07 11:35:12;;;;;;;;;10.00;10.00;;;;;34.24;22.91;98852.53;6260335;27;96507;-60
2022/07/07 11:38:16;;;;;;;;;10.00;9.40;;;;;34.25;22.43;98854.97;6261752;27;97373;-58
2022/07/07 11:41:21;;;;;;;;;10.40;10.00;;;;;34.25;22.10;98846.56;6261287;27;97573;-56
2022/07/07 11:44:25;;;;;;;;;10.00;9.75;;;;;34.24;21.84;98852.53;6261940;27;97522;-58
2022/07/07 11:47:34;;;;;;;;;9.50;9.00;;;;;34.23;21.46;98836.94;6262016;27;97412;-61
2022/07/07 11:50:37;;;;;;;;;7.80;7.80;;;;;34.21;21.47;98844.91;6262514;27;97425;-56
2022/07/07 11:53:41;;;;;;;;;10.00;10.00;;;;;34.18;21.90;98835.28;6261728;27;97392;-60
2022/07/07 11:56:46;;;;;;;;;8.00;8.00;;;;;34.14;22.11;98845.59;6261762;27;96961;-59
2022/07/07 11:59:49;;;;;;;;;7.00;7.00;;;;;34.05;22.17;98833.88;6262250;27;96930;-60
2022/07/07 12:02:54;;;;;;;;;8.00;8.00;;;;;33.96;22.59;98844.53;6242990;27;98423;-59
2022/07/07 12:05:58;;;;;;;;;7.00;6.20;;;;;33.75;22.56;98842.22;6261843;27;96933;-57
2022/07/07 12:09:04;;;;;;;;;8.40;8.40;;;;;33.34;22.47;98827.16;6259054;27;97156;-61
2022/07/07 12:12:17;;;;;;;;;6.00;5.60;;;;;33.16;22.61;98842.81;6262666;27;96753;-63
2022/07/07 12:15:21;;;;;;;;;6.60;6.00;;;;;32.87;23.44;98829.50;6262014;27;96889;-56
2022/07/07 12:18:33;;;;;;;;;10.00;10.00;;;;;32.59;23.79;98846.50;6261519;27;97436;-54
2022/07/07 12:21:43;;;;;;;;;9.00;9.00;;;;;32.32;23.23;98836.34;6264772;27;97392;-62
2022/07/07 12:25:00;;;;;;;;;7.00;7.00;;;;;32.07;23.06;98839.38;6266843;27;97831;-61
2022/07/07 12:28:34;;;;;;;;;7.75;7.75;;;;;31.81;23.39;98828.84;6265525;27;96507;-58
2022/07/07 12:31:40;;;;;;;;;4.60;4.20;;;;;31.65;23.93;98832.84;6265997;27;97471;-60
2022/07/07 12:34:46;;;;;;;;;6.00;6.00;;;;;31.51;23.35;98827.72;6266038;27;97446;-60
2022/07/07 12:37:50;;;;;;;;;7.00;7.00;;;;;31.45;23.39;98819.97;6264859;27;97074;-59
2022/07/07 12:40:58;;;;;;;;;6.00;6.00;;;;;31.42;23.78;98809.56;6262985;27;97988;-59
2022/07/07 12:44:15;;;;;;;;;7.40;7.40;;;;;31.36;24.26;98822.97;6266301;27;96564;-59
2022/07/07 12:47:45;;;;;;;;;5.50;5.50;;;;;31.34;24.02;98814.97;6265387;27;97452;-56
2022/07/07 12:50:50;;;;;;;;;6.00;6.00;;;;;31.33;23.92;98813.34;6265847;27;97534;-59
2022/07/07 12:53:54;;;;;;;;;6.00;6.00;;;;;31.32;23.81;98819.28;6266093;27;97555;-57
2022/07/07 12:56:59;;;;;;;;;7.00;7.00;;;;;31.35;23.79;98812.97;6245407;27;97874;-60
2022/07/07 13:00:07;;;;;;;;;7.00;7.00;;;;;31.49;24.17;98812.50;6265092;27;98353;-58
2022/07/07 13:03:11;;;;;;;;;8.75;8.00;;;;;31.65;24.21;98814.16;6263717;27;97377;-56
2022/07/07 13:06:15;;;;;;;;;6.00;6.00;;;;;31.79;24.36;98803.31;6263392;27;97621;-58
2022/07/07 13:09:18;;;;;;;;;9.20;8.80;;;;;31.90;24.29;98806.34;6263038;27;96779;-61
2022/07/07 13:12:38;;;;;;;;;8.00;7.00;;;;;31.95;23.89;98813.63;6263136;27;97187;-63
2022/07/07 13:15:43;;;;;;;;;8.75;8.00;;;;;32.05;24.48;98804.69;6264480;27;96683;-56
2022/07/07 13:18:46;;;;;;;;;7.00;7.00;;;;;32.20;24.34;98803.84;6264203;27;97457;-60
2022/07/07 13:21:49;;;;;;;;;6.00;6.00;;;;;32.32;24.11;98798.09;6239676;28;97035;-60
2022/07/07 13:24:53;;;;;;;;;7.00;7.00;;;;;32.37;23.19;98805.34;6239544;28;96505;-60
2022/07/07 13:27:56;;;;;;;;;8.00;8.00;;;;;32.44;23.14;98806.31;6239506;28;97451;-58
2022/07/07 13:31:01;;;;;;;;;7.67;7.00;;;;;32.39;23.87;98773.13;6257752;27;97019;-55
2022/07/07 13:34:05;;;;;;;;;7.75;7.75;;;;;32.70;23.61;98797.25;6263371;27;97393;-60
2022/07/07 13:37:08;;;;;;;;;8.00;7.00;;;;;32.81;22.97;98803.06;6243367;27;99550;-58
2022/07/07 13:40:13;;;;;;;;;8.60;8.60;;;;;32.87;22.91;98796.81;6263555;27;97461;-59
2022/07/07 13:43:17;;;;;;;;;7.00;7.00;;;;;32.97;23.19;98785.00;6263527;27;97399;-60
2022/07/07 13:46:22;;;;;;;;;8.00;8.00;;;;;33.09;22.82;98781.19;6263944;27;97522;-55
2022/07/07 13:49:25;;;;;;;;;7.00;7.00;;;;;33.07;22.87;98778.00;6264040;27;97877;-60
2022/07/07 13:52:29;;;;;;;;;8.00;8.00;;;;;32.98;22.65;98775.47;6264073;27;96386;-59
2022/07/07 13:55:33;;;;;;;;;8.00;7.75;;;;;32.94;21.83;98780.16;6263029;27;96590;-57
2022/07/07 13:58:36;;;;;;;;;8.25;8.00;;;;;32.92;22.69;98779.72;6263679;27;97449;-59
2022/07/07 14:01:41;;;;;;;;;6.00;6.00;;;;;33.06;22.63;98777.19;6264012;27;97381;-59
2022/07/07 14:04:45;;;;;;;;;7.00;7.00;;;;;33.15;22.90;98768.53;6245580;27;96817;-58
2022/07/07 14:07:51;;;;;;;;;7.80;7.80;;;;;32.88;22.34;98725.81;6245188;27;99221;-59
2022/07/07 14:10:54;;;;;;;;;9.00;9.00;;;;;33.18;22.58;98773.44;6244481;27;99429;-55
2022/07/07 14:13:57;;;;;;;;;7.50;7.00;;;;;33.13;22.32;98767.31;6263841;27;97325;-60
2022/07/07 14:17:06;;;;;;;;;8.00;6.50;;;;;33.05;22.35;98777.56;6263799;27;97359;-62
2022/07/07 14:20:11;;;;;;;;;6.40;6.00;;;;;32.93;22.32;98772.16;6259602;27;96658;-57